N328AP KGYR-KTEX
Flight info
| Callsign | N328AP |
|---|---|
| Flight time | 0h 55m |
| Altitude | 45000 |
| Route | DRK ETL |
| Aircraft | GLF6/M-SBDE2E3FGHIJ4J5M1RWXY/LB1D1 |
Departure
| Time | 2026-05-08 23:27 |
|---|---|
| Airport | Phoenix Goodyear Airport (KGYR) |
Arrival
| Time | 2026-05-09 00:22 |
|---|---|
| Airport | Telluride Regional Airport (KTEX) |
| Time | Latitude | Longitude | Altitude | Speed | Heading |
|---|---|---|---|---|---|
| 2026-05-08 23:02 | 33.43105 | -112.36569 | 993 ft | 0 kts | 128° |
| 2026-05-08 23:22 | 33.43104 | -112.36568 | 994 ft | 0 kts | 128° |
| 2026-05-08 23:23 | 33.43101 | -112.36550 | 994 ft | 4 kts | 75° |
| 2026-05-08 23:23 | 33.43141 | -112.36508 | 994 ft | 11 kts | 39° |
| 2026-05-08 23:23 | 33.43198 | -112.36468 | 994 ft | 7 kts | 4° |
| 2026-05-08 23:23 | 33.43228 | -112.36504 | 994 ft | 5 kts | 287° |
| 2026-05-08 23:24 | 33.43208 | -112.36546 | 994 ft | 7 kts | 221° |
| 2026-05-08 23:24 | 33.43180 | -112.36590 | 994 ft | 4 kts | 270° |
| 2026-05-08 23:24 | 33.43184 | -112.36604 | 994 ft | 0 kts | 294° |
| 2026-05-08 23:26 | 33.43188 | -112.36613 | 994 ft | 4 kts | 300° |
| 2026-05-08 23:26 | 33.43224 | -112.36671 | 994 ft | 9 kts | 294° |
| 2026-05-08 23:26 | 33.43193 | -112.36726 | 993 ft | 12 kts | 218° |
| 2026-05-08 23:27 | 33.42953 | -112.36951 | 992 ft | 90 kts | 218° |
| 2026-05-08 23:27 | 33.42253 | -112.37596 | 1202 ft | 150 kts | 218° |
| 2026-05-08 23:27 | 33.41411 | -112.38264 | 2204 ft | 154 kts | 220° |
| 2026-05-08 23:27 | 33.40569 | -112.39065 | 2954 ft | 166 kts | 222° |
| 2026-05-08 23:28 | 33.39532 | -112.40037 | 3337 ft | 206 kts | 221° |
| 2026-05-08 23:28 | 33.38314 | -112.41196 | 3740 ft | 248 kts | 221° |
| 2026-05-08 23:28 | 33.36946 | -112.42568 | 4655 ft | 263 kts | 230° |
| 2026-05-08 23:28 | 33.36214 | -112.44544 | 5692 ft | 268 kts | 266° |
| 2026-05-08 23:29 | 33.36618 | -112.46670 | 6843 ft | 273 kts | 301° |
| 2026-05-08 23:29 | 33.38015 | -112.48149 | 8079 ft | 279 kts | 335° |
| 2026-05-08 23:29 | 33.39879 | -112.48729 | 9350 ft | 285 kts | 349° |
| 2026-05-08 23:29 | 33.41873 | -112.49013 | 10590 ft | 294 kts | 354° |
| 2026-05-08 23:30 | 33.44092 | -112.49166 | 10875 ft | 337 kts | 358° |
| 2026-05-08 23:30 | 33.46440 | -112.49226 | 12150 ft | 345 kts | 359° |
| 2026-05-08 23:30 | 33.48883 | -112.49242 | 13566 ft | 351 kts | 0° |
| 2026-05-08 23:30 | 33.51326 | -112.49235 | 14893 ft | 358 kts | 1° |
| 2026-05-08 23:31 | 33.53827 | -112.49219 | 16211 ft | 366 kts | 1° |
| 2026-05-08 23:31 | 33.56399 | -112.49195 | 17513 ft | 374 kts | 2° |
| 2026-05-08 23:31 | 33.59009 | -112.49168 | 18804 ft | 381 kts | 1° |
| 2026-05-08 23:31 | 33.61689 | -112.49140 | 20061 ft | 391 kts | 1° |
| 2026-05-08 23:32 | 33.64432 | -112.49113 | 21310 ft | 399 kts | 1° |
| 2026-05-08 23:32 | 33.67279 | -112.49084 | 22502 ft | 409 kts | 0° |
| 2026-05-08 23:32 | 33.70126 | -112.49056 | 23765 ft | 416 kts | 0° |
| 2026-05-08 23:32 | 33.73024 | -112.49027 | 24970 ft | 424 kts | 0° |
| 2026-05-08 23:33 | 33.76033 | -112.48998 | 26171 ft | 430 kts | 360° |
| 2026-05-08 23:33 | 33.79037 | -112.48967 | 27289 ft | 436 kts | 360° |
| 2026-05-08 23:33 | 33.82124 | -112.48937 | 28297 ft | 444 kts | 360° |
| 2026-05-08 23:33 | 33.85245 | -112.48904 | 29364 ft | 449 kts | 360° |
| 2026-05-08 23:34 | 33.88358 | -112.48872 | 30527 ft | 451 kts | 359° |
| 2026-05-08 23:34 | 33.91473 | -112.48840 | 31796 ft | 449 kts | 359° |
| 2026-05-08 23:34 | 33.94645 | -112.48808 | 33037 ft | 446 kts | 359° |
| 2026-05-08 23:34 | 33.97731 | -112.48776 | 34302 ft | 442 kts | 359° |
| 2026-05-08 23:35 | 34.00896 | -112.48745 | 35509 ft | 439 kts | 359° |
| 2026-05-08 23:35 | 34.03938 | -112.48714 | 36711 ft | 436 kts | 359° |
| 2026-05-08 23:35 | 34.06972 | -112.48682 | 37747 ft | 436 kts | 359° |
| 2026-05-08 23:35 | 34.10009 | -112.48652 | 38808 ft | 434 kts | 358° |
| 2026-05-08 23:36 | 34.13056 | -112.48621 | 39792 ft | 432 kts | 358° |
| 2026-05-08 23:36 | 34.16087 | -112.48590 | 40677 ft | 431 kts | 358° |
| 2026-05-08 23:36 | 34.19099 | -112.48560 | 41538 ft | 430 kts | 358° |
| 2026-05-08 23:36 | 34.22084 | -112.48529 | 42351 ft | 428 kts | 358° |
| 2026-05-08 23:37 | 34.25060 | -112.48499 | 43079 ft | 428 kts | 358° |
| 2026-05-08 23:37 | 34.28060 | -112.48469 | 43786 ft | 427 kts | 358° |
| 2026-05-08 23:37 | 34.31014 | -112.48438 | 44374 ft | 426 kts | 358° |
| 2026-05-08 23:37 | 34.33985 | -112.48408 | 44951 ft | 425 kts | 359° |
| 2026-05-08 23:38 | 34.36955 | -112.48377 | 45125 ft | 430 kts | 359° |
| 2026-05-08 23:38 | 34.39998 | -112.48347 | 45152 ft | 443 kts | 359° |
| 2026-05-08 23:38 | 34.43167 | -112.48315 | 45156 ft | 456 kts | 359° |
| 2026-05-08 23:38 | 34.46350 | -112.48281 | 45596 ft | 455 kts | 359° |
| 2026-05-08 23:39 | 34.49494 | -112.48248 | 46210 ft | 450 kts | 359° |
| 2026-05-08 23:39 | 34.52657 | -112.48216 | 46683 ft | 448 kts | 359° |
| 2026-05-08 23:39 | 34.55800 | -112.48183 | 47068 ft | 448 kts | 359° |
| 2026-05-08 23:39 | 34.58897 | -112.48150 | 47727 ft | 440 kts | 358° |
| 2026-05-08 23:40 | 34.61956 | -112.48119 | 48138 ft | 438 kts | 358° |
| 2026-05-08 23:40 | 34.65079 | -112.48087 | 48503 ft | 437 kts | 358° |
| 2026-05-08 23:40 | 34.68110 | -112.47938 | 48778 ft | 440 kts | 7° |
| 2026-05-08 23:40 | 34.71037 | -112.46681 | 48985 ft | 448 kts | 28° |
| 2026-05-08 23:41 | 34.73475 | -112.44290 | 49232 ft | 453 kts | 42° |
| 2026-05-08 23:41 | 34.75707 | -112.41589 | 49498 ft | 453 kts | 42° |
| 2026-05-08 23:41 | 34.77964 | -112.38893 | 49766 ft | 453 kts | 42° |
| 2026-05-08 23:41 | 34.80190 | -112.36240 | 50019 ft | 453 kts | 41° |
| 2026-05-08 23:42 | 34.82452 | -112.33544 | 50160 ft | 457 kts | 42° |
| 2026-05-08 23:42 | 34.84756 | -112.30798 | 50173 ft | 465 kts | 42° |
| 2026-05-08 23:42 | 34.89430 | -112.25218 | 50175 ft | 480 kts | 42° |
| 2026-05-08 23:43 | 34.94297 | -112.19398 | 50189 ft | 493 kts | 42° |
| 2026-05-08 23:43 | 34.99221 | -112.13499 | 50195 ft | 501 kts | 42° |
| 2026-05-08 23:44 | 35.04221 | -112.07499 | 50204 ft | 502 kts | 42° |
| 2026-05-08 23:44 | 35.09180 | -112.01537 | 50213 ft | 500 kts | 42° |
| 2026-05-08 23:45 | 35.14129 | -111.95575 | 50230 ft | 494 kts | 42° |
| 2026-05-08 23:45 | 35.19008 | -111.89690 | 50242 ft | 490 kts | 42° |
| 2026-05-08 23:46 | 35.23867 | -111.83817 | 50259 ft | 488 kts | 42° |
| 2026-05-08 23:46 | 35.28692 | -111.77975 | 50265 ft | 488 kts | 42° |
| 2026-05-08 23:47 | 35.33531 | -111.72105 | 50261 ft | 489 kts | 42° |
| 2026-05-08 23:47 | 35.38378 | -111.66215 | 50247 ft | 489 kts | 42° |
| 2026-05-08 23:48 | 35.43254 | -111.60279 | 50245 ft | 489 kts | 42° |
| 2026-05-08 23:48 | 35.48065 | -111.54412 | 50230 ft | 488 kts | 42° |
| 2026-05-08 23:49 | 35.52949 | -111.48444 | 50223 ft | 488 kts | 42° |
| 2026-05-08 23:49 | 35.57793 | -111.42516 | 50201 ft | 488 kts | 42° |
| 2026-05-08 23:50 | 35.62590 | -111.36634 | 50188 ft | 488 kts | 42° |
| 2026-05-08 23:50 | 35.67446 | -111.30669 | 50172 ft | 488 kts | 43° |
| 2026-05-08 23:51 | 35.72282 | -111.24718 | 50164 ft | 488 kts | 43° |
| 2026-05-08 23:51 | 35.77108 | -111.18768 | 50166 ft | 488 kts | 43° |
| 2026-05-08 23:52 | 35.81946 | -111.12793 | 50176 ft | 488 kts | 43° |
| 2026-05-08 23:52 | 35.86728 | -111.06876 | 50183 ft | 488 kts | 43° |
| 2026-05-08 23:53 | 35.91551 | -111.00897 | 50199 ft | 488 kts | 43° |
| 2026-05-08 23:53 | 35.96359 | -110.94927 | 50209 ft | 489 kts | 43° |
| 2026-05-08 23:54 | 36.01154 | -110.88961 | 50210 ft | 489 kts | 43° |
| 2026-05-08 23:55 | 36.08343 | -110.79995 | 50211 ft | 489 kts | 43° |
| 2026-05-08 23:55 | 36.13159 | -110.73975 | 50217 ft | 489 kts | 43° |
| 2026-05-08 23:56 | 36.17945 | -110.67982 | 50214 ft | 489 kts | 43° |
| 2026-05-08 23:56 | 36.22765 | -110.61937 | 50218 ft | 489 kts | 43° |
| 2026-05-08 23:57 | 36.27560 | -110.55910 | 50221 ft | 489 kts | 43° |
| 2026-05-08 23:57 | 36.32342 | -110.49888 | 50232 ft | 489 kts | 43° |
| 2026-05-08 23:58 | 36.37096 | -110.43890 | 50214 ft | 489 kts | 43° |
| 2026-05-08 23:58 | 36.41910 | -110.37805 | 50213 ft | 489 kts | 43° |
| 2026-05-08 23:59 | 36.46719 | -110.31717 | 49986 ft | 493 kts | 43° |
| 2026-05-08 23:59 | 36.49142 | -110.28645 | 49510 ft | 493 kts | 43° |
| 2026-05-08 23:59 | 36.51518 | -110.25627 | 48992 ft | 487 kts | 43° |
| 2026-05-08 23:59 | 36.53908 | -110.22590 | 48442 ft | 482 kts | 43° |
| 2026-05-09 00:00 | 36.56284 | -110.19568 | 47934 ft | 477 kts | 43° |
| 2026-05-09 00:00 | 36.58619 | -110.16598 | 47360 ft | 472 kts | 43° |
| 2026-05-09 00:00 | 36.60926 | -110.13657 | 46807 ft | 468 kts | 43° |
| 2026-05-09 00:00 | 36.63175 | -110.10789 | 46331 ft | 465 kts | 43° |
| 2026-05-09 00:01 | 36.65458 | -110.07876 | 45770 ft | 465 kts | 42° |
| 2026-05-09 00:01 | 36.67714 | -110.04994 | 45268 ft | 464 kts | 42° |
| 2026-05-09 00:01 | 36.69979 | -110.02100 | 44692 ft | 464 kts | 42° |
| 2026-05-09 00:01 | 36.72221 | -109.99230 | 44136 ft | 462 kts | 42° |
| 2026-05-09 00:02 | 36.74469 | -109.96352 | 43614 ft | 462 kts | 42° |
| 2026-05-09 00:02 | 36.76722 | -109.93463 | 43083 ft | 463 kts | 42° |
| 2026-05-09 00:02 | 36.78962 | -109.90588 | 42594 ft | 463 kts | 42° |
| 2026-05-09 00:02 | 36.81201 | -109.87712 | 42073 ft | 464 kts | 42° |
| 2026-05-09 00:03 | 36.83457 | -109.84813 | 41549 ft | 465 kts | 42° |
| 2026-05-09 00:03 | 36.85713 | -109.81910 | 41035 ft | 465 kts | 42° |
| 2026-05-09 00:03 | 36.87954 | -109.79024 | 40530 ft | 465 kts | 42° |
| 2026-05-09 00:03 | 36.90226 | -109.76095 | 40014 ft | 465 kts | 42° |
| 2026-05-09 00:04 | 36.92460 | -109.73213 | 39487 ft | 463 kts | 42° |
| 2026-05-09 00:04 | 36.94693 | -109.70332 | 38971 ft | 464 kts | 42° |
| 2026-05-09 00:04 | 36.96964 | -109.67395 | 38458 ft | 466 kts | 42° |
| 2026-05-09 00:04 | 36.99218 | -109.64480 | 37942 ft | 468 kts | 42° |
| 2026-05-09 00:05 | 37.01471 | -109.61563 | 37429 ft | 469 kts | 42° |
| 2026-05-09 00:05 | 37.03746 | -109.58615 | 36903 ft | 470 kts | 42° |
| 2026-05-09 00:05 | 37.06023 | -109.55661 | 36383 ft | 471 kts | 42° |
| 2026-05-09 00:05 | 37.08296 | -109.52710 | 35861 ft | 473 kts | 42° |
| 2026-05-09 00:06 | 37.10606 | -109.49709 | 35330 ft | 475 kts | 42° |
| 2026-05-09 00:06 | 37.12757 | -109.46909 | 34855 ft | 479 kts | 42° |
| 2026-05-09 00:06 | 37.15079 | -109.43887 | 34326 ft | 482 kts | 42° |
| 2026-05-09 00:06 | 37.17406 | -109.40854 | 33803 ft | 483 kts | 42° |
| 2026-05-09 00:07 | 37.19726 | -109.37828 | 33289 ft | 485 kts | 42° |
| 2026-05-09 00:07 | 37.22109 | -109.34718 | 32740 ft | 486 kts | 43° |
| 2026-05-09 00:07 | 37.24460 | -109.31644 | 32190 ft | 489 kts | 43° |
| 2026-05-09 00:07 | 37.26809 | -109.28573 | 31652 ft | 489 kts | 43° |
| 2026-05-09 00:08 | 37.29157 | -109.25497 | 31109 ft | 490 kts | 43° |
| 2026-05-09 00:08 | 37.31522 | -109.22398 | 30564 ft | 489 kts | 43° |
| 2026-05-09 00:08 | 37.33882 | -109.19300 | 30027 ft | 491 kts | 43° |
| 2026-05-09 00:08 | 37.36250 | -109.16192 | 29489 ft | 494 kts | 43° |
| 2026-05-09 00:09 | 37.38610 | -109.13088 | 28950 ft | 495 kts | 43° |
| 2026-05-09 00:09 | 37.41013 | -109.09925 | 28408 ft | 493 kts | 43° |
| 2026-05-09 00:09 | 37.43377 | -109.06809 | 27872 ft | 489 kts | 43° |
| 2026-05-09 00:09 | 37.45748 | -109.03684 | 27334 ft | 485 kts | 43° |
| 2026-05-09 00:10 | 37.48065 | -109.00626 | 26814 ft | 481 kts | 43° |
| 2026-05-09 00:10 | 37.50345 | -108.97615 | 26302 ft | 477 kts | 43° |
| 2026-05-09 00:10 | 37.52658 | -108.94559 | 25775 ft | 474 kts | 43° |
| 2026-05-09 00:10 | 37.54906 | -108.91582 | 25266 ft | 470 kts | 43° |
| 2026-05-09 00:11 | 37.57142 | -108.88619 | 24763 ft | 467 kts | 43° |
| 2026-05-09 00:11 | 37.59400 | -108.85626 | 24246 ft | 463 kts | 43° |
| 2026-05-09 00:11 | 37.61632 | -108.82664 | 23732 ft | 459 kts | 43° |
| 2026-05-09 00:11 | 37.63840 | -108.79730 | 23229 ft | 456 kts | 43° |
| 2026-05-09 00:12 | 37.66037 | -108.76810 | 22735 ft | 453 kts | 43° |
| 2026-05-09 00:12 | 37.68221 | -108.73901 | 22246 ft | 450 kts | 43° |
| 2026-05-09 00:12 | 37.70331 | -108.71090 | 21773 ft | 439 kts | 42° |
| 2026-05-09 00:12 | 37.72387 | -108.68348 | 21303 ft | 421 kts | 42° |
| 2026-05-09 00:13 | 37.74374 | -108.65695 | 20856 ft | 405 kts | 42° |
| 2026-05-09 00:13 | 37.76282 | -108.63147 | 20417 ft | 391 kts | 42° |
| 2026-05-09 00:13 | 37.78114 | -108.60699 | 19992 ft | 378 kts | 42° |
| 2026-05-09 00:13 | 37.79898 | -108.58313 | 19581 ft | 366 kts | 42° |
| 2026-05-09 00:14 | 37.81627 | -108.55999 | 19194 ft | 356 kts | 42° |
| 2026-05-09 00:14 | 37.83299 | -108.53760 | 18818 ft | 346 kts | 42° |
| 2026-05-09 00:14 | 37.84920 | -108.51588 | 18440 ft | 338 kts | 42° |
| 2026-05-09 00:14 | 37.86526 | -108.49436 | 17882 ft | 336 kts | 42° |
| 2026-05-09 00:15 | 37.88129 | -108.47285 | 17461 ft | 330 kts | 42° |
| 2026-05-09 00:15 | 37.89678 | -108.45204 | 17090 ft | 325 kts | 42° |
| 2026-05-09 00:15 | 37.91221 | -108.43130 | 16727 ft | 322 kts | 42° |
| 2026-05-09 00:15 | 37.92757 | -108.41067 | 16370 ft | 320 kts | 42° |
| 2026-05-09 00:16 | 37.94271 | -108.39028 | 16021 ft | 319 kts | 43° |
| 2026-05-09 00:16 | 37.95799 | -108.36970 | 15676 ft | 317 kts | 42° |
| 2026-05-09 00:16 | 37.97302 | -108.34946 | 15351 ft | 316 kts | 43° |
| 2026-05-09 00:16 | 37.98808 | -108.32914 | 15009 ft | 310 kts | 43° |
| 2026-05-09 00:17 | 38.00277 | -108.30932 | 14666 ft | 305 kts | 43° |
| 2026-05-09 00:17 | 38.01714 | -108.28990 | 14331 ft | 300 kts | 43° |
| 2026-05-09 00:17 | 38.02812 | -108.26746 | 14010 ft | 322 kts | 70° |
| 2026-05-09 00:17 | 38.02945 | -108.23792 | 13769 ft | 342 kts | 99° |
| 2026-05-09 00:18 | 38.01982 | -108.21066 | 13504 ft | 333 kts | 128° |
| 2026-05-09 00:18 | 38.00286 | -108.19164 | 13238 ft | 321 kts | 140° |
| 2026-05-09 00:18 | 37.99029 | -108.16911 | 12937 ft | 313 kts | 109° |
| 2026-05-09 00:18 | 37.98770 | -108.14356 | 12327 ft | 282 kts | 82° |
| 2026-05-09 00:19 | 37.98793 | -108.11964 | 11673 ft | 265 kts | 94° |
| 2026-05-09 00:19 | 37.98550 | -108.09721 | 11063 ft | 253 kts | 98° |
| 2026-05-09 00:19 | 37.98239 | -108.07620 | 11033 ft | 236 kts | 100° |
| 2026-05-09 00:19 | 37.97926 | -108.05649 | 10918 ft | 224 kts | 100° |
| 2026-05-09 00:20 | 37.97629 | -108.03822 | 10924 ft | 199 kts | 100° |
| 2026-05-09 00:20 | 37.97454 | -108.02207 | 10735 ft | 174 kts | 95° |
| 2026-05-09 00:20 | 37.97306 | -108.00716 | 10367 ft | 170 kts | 96° |
| 2026-05-09 00:20 | 37.97144 | -107.99313 | 10013 ft | 171 kts | 99° |
| 2026-05-09 00:21 | 37.96894 | -107.97904 | 9766 ft | 162 kts | 104° |
| 2026-05-09 00:21 | 37.96587 | -107.96516 | 9603 ft | 165 kts | 107° |
| 2026-05-09 00:21 | 37.96287 | -107.95149 | 9477 ft | 160 kts | 106° |
| 2026-05-09 00:21 | 37.96000 | -107.93799 | 9316 ft | 156 kts | 104° |
| 2026-05-09 00:22 | 37.95725 | -107.92493 | 9145 ft | 151 kts | 105° |
| 2026-05-09 00:22 | 37.95470 | -107.91287 | 9060 ft | 124 kts | 105° |
| 2026-05-09 00:22 | 37.95300 | -107.90487 | 9073 ft | 85 kts | 105° |
| 2026-05-09 00:22 | 37.95225 | -107.90136 | 9091 ft | 36 kts | 104° |
| 2026-05-09 00:23 | 37.95168 | -107.89861 | 9104 ft | 26 kts | 105° |
| 2026-05-09 00:23 | 37.95142 | -107.89709 | 9111 ft | 9 kts | 76° |
| 2026-05-09 00:23 | 37.95201 | -107.89671 | 9113 ft | 14 kts | 11° |
| 2026-05-09 00:23 | 37.95256 | -107.89754 | 9111 ft | 16 kts | 285° |
| 2026-05-09 00:24 | 37.95291 | -107.89915 | 9103 ft | 20 kts | 285° |
| 2026-05-09 00:24 | 37.95331 | -107.90095 | 9095 ft | 20 kts | 285° |
| 2026-05-09 00:24 | 37.95364 | -107.90249 | 9087 ft | 9 kts | 297° |
| 2026-05-09 00:24 | 37.95399 | -107.90257 | 9087 ft | 4 kts | 14° |
| 2026-05-09 00:25 | 37.95424 | -107.90249 | 9087 ft | 2 kts | 14° |
| 2026-05-09 00:25 | 37.95461 | -107.90237 | 9089 ft | 10 kts | 14° |
| 2026-05-09 00:25 | 37.95518 | -107.90211 | 9092 ft | 4 kts | 43° |
| 2026-05-09 00:25 | 37.95520 | -107.90175 | 9094 ft | 3 kts | 88° |
| 2026-05-09 00:26 | 37.95537 | -107.90171 | 9094 ft | 3 kts | 310° |
| 2026-05-09 00:26 | 37.95537 | -107.90172 | 9094 ft | 2 kts | 288° |
| 2026-05-09 00:26 | 37.95534 | -107.90158 | 9095 ft | 0 kts | 287° |